Terminal Aerodrome Forecast
Issued by NWS

Home | Current Version | Previous Version | Text Only | Print | Product List | Glossary On
Versions: 1 2 3 4 5 6 7 8 9 10 11 12 13 14 15 16 17 18 19 20 21 22 23 24 25 26 27 28
000
FTUS45 KBOU 211503 AAA
TAFAPA
TAF AMD
KAPA 211503Z 2115/2212 04008KT P6SM FEW120 SCT220
     FM211800 08008KT P6SM FEW140 SCT220
     FM212200 13012KT P6SM VCSH SCT080 BKN140
     FM220200 16016KT P6SM FEW120 SCT220
     FM221000 18007KT P6SM FEW110 SCT220=

USA.gov is the U.S. government's official web portal to all federal, state and local government web resources and services.